Impacts METAR Board INFO
IDs:

KPHL - Philadelphia Intl, PA, US

Updated at: 1509 UTC 16 Jan 2018
Potential Impact None Slight Moderate High
Time16/03Z 16/04Z 16/05Z 16/06Z 16/07Z 16/08Z 16/09Z 16/10Z 16/11Z 16/12Z 16/13Z 16/14Z 16/15Z
VIS10 10 10 10 10 10 10 10 10 10 9 10 10
CIG16 16 16 16 16 16 26 21 27 24 24 65 31
CoverOVCOVCOVCOVCOVCOVCOVCOVCOVCOVCOVCBKNBKN
FltCatMVFRMVFRMVFRMVFRMVFRMVFRMVFRMVFRMVFRMVFRMVFRVFRVFR
WX---------------------SN----
WDir405004005080707070608060
WSpd8 3 0 4 0 5 8 6 5 3 4 5 4
WGst-- -- -- -- -- -- -- -- -- -- -- -- --
Raw hourly METARs
KPHL 160254Z 04008KT 10SM OVC016 M01/M06 A3050 RMK AO2 SLP329 T10111056 58005 $
KPHL 160354Z 05003KT 10SM OVC016 M02/M06 A3050 RMK AO2 SLP326 T10171056 $
KPHL 160454Z 00000KT 10SM BKN016 OVC024 M02/M05 A3049 RMK AO2 SLP325 T10171050 400111083 $
KPHL 160554Z 04004KT 10SM OVC016 M02/M05 A3049 RMK AO2 SLP323 T10171050 11006 21022 56005 $
KPHL 160654Z 00000KT 10SM OVC016 M01/M05 A3049 RMK AO2 SLP325 T10111050 $
KPHL 160754Z 05005KT 10SM OVC016 M01/M05 A3049 RMK AO2 SLP323 T10111050 $
KPHL 160854Z 08008KT 10SM BKN026 OVC036 M01/M04 A3048 RMK AO2 SLP320 T10111044 58003 $
KPHL 160954Z 07006KT 10SM BKN021 OVC033 M01/M05 A3047 RMK AO2 SLP319 T10111050 $
KPHL 161054Z 07005KT 10SM BKN027 OVC036 M01/M04 A3049 RMK AO2 SLP325 T10111044 $
KPHL 161154Z 07003KT 10SM BKN024 OVC030 M01/M04 A3050 RMK AO2 SLP327 T10111044 11011 21017 53006 $
KPHL 161254Z 06004KT 9SM -SN BKN024 BKN035 OVC075 M01/M04 A3051 RMK AO2 SNB25 SLP330 P0000 T10111039 $
KPHL 161354Z 08005KT 10SM FEW024 SCT031 BKN065 M01/M04 A3050 RMK AO2 SNE20 SLP327 P0000 T10061039
KPHL 161454Z 06004KT 10SM BKN031 BKN060 01/M03 A3051 RMK AO2 SLP330 60000 T00061033 51003